Time;durP1;ratioP1;P1;durP2;ratioP2;P2;SDS_P1;SDS_P2;PMS_P1;PMS_P2;Temp;Humidity;BMP_temperature;BMP_pressure;BME280_temperature;BME280_humidity;BME280_pressure;Samples;Min_cycle;Max_cycle;Signal;HPM_P1;HPM_P2
2023/10/02 00:03:41;;;;;;;10.50;6.10;;;;;;;;;;5084341;28;20097;-47
2023/10/02 00:06:11;;;;;;;13.10;8.32;;;;;;;;;;5084276;28;20028;-36
2023/10/02 00:08:51;;;;;;;17.05;11.65;;;;;;;;;;5084937;28;20198;-41
2023/10/02 00:11:36;;;;;;;18.50;9.70;;;;;;;;;;5084644;28;20041;-43
2023/10/02 00:14:18;;;;;;;13.57;9.35;;;;;;;;;;5085043;28;20323;-43
2023/10/02 00:17:08;;;;;;;17.17;12.02;;;;;;;;;;5084531;28;20081;-37
2023/10/02 00:19:37;;;;;;;22.35;19.95;;;;;;;;;;5084375;28;20161;-42
2023/10/02 00:22:57;;;;;;;28.42;20.95;;;;;;;;;;5084363;28;20231;-42
2023/10/02 00:25:00;;;;;;;18.98;14.27;;;;;;;;;;5073637;28;20124;-37
2023/10/02 00:27:31;;;;;;;13.27;10.50;;;;;;;;;;5084375;28;20096;-39
2023/10/02 00:29:58;;;;;;;12.35;8.90;;;;;;;;;;5084139;28;20316;-42
2023/10/02 00:32:29;;;;;;;10.88;7.22;;;;;;;;;;5084314;28;20024;-41
2023/10/02 00:35:00;;;;;;;27.10;7.78;;;;;;;;;;5084225;28;20104;-50
2023/10/02 00:40:22;;;;;;;6.85;4.88;;;;;;;;;;5084211;28;20063;-46
2023/10/02 00:43:33;;;;;;;20.38;8.27;;;;;;;;;;5097286;28;20032;-46
2023/10/02 00:45:42;;;;;;;11.43;6.57;;;;;;;;;;5103603;28;20075;-43
2023/10/02 00:50:55;;;;;;;16.88;6.55;;;;;;;;;;5096549;28;20042;-44
2023/10/02 00:53:42;;;;;;;13.80;6.43;;;;;;;;;;5104428;28;20030;-46
2023/10/02 00:56:24;;;;;;;10.38;7.43;;;;;;;;;;5100220;28;20312;-46
2023/10/02 00:59:14;;;;;;;13.13;6.65;;;;;;;;;;5102315;28;20130;-46
2023/10/02 01:01:42;;;;;;;12.75;6.38;;;;;;;;;;5098838;28;20111;-42
2023/10/02 01:04:23;;;;;;;10.07;5.55;;;;;;;;;;5099948;28;20044;-44
2023/10/02 01:06:54;;;;;;;9.48;4.82;;;;;;;;;;5098148;28;20239;-43
2023/10/02 01:09:25;;;;;;;8.55;4.20;;;;;;;;;;5103476;28;20069;-45
2023/10/02 01:11:52;;;;;;;7.43;3.85;;;;;;;;;;5104084;28;20024;-44
2023/10/02 01:14:40;;;;;;;7.68;3.90;;;;;;;;;;5103892;28;20016;-49
2023/10/02 01:17:07;;;;;;;7.78;3.83;;;;;;;;;;5096966;28;20039;-45
2023/10/02 01:19:54;;;;;;;5.65;3.28;;;;;;;;;;5103302;28;20238;-47
2023/10/02 01:25:39;;;;;;;12.85;11.65;;;;;;;;;;5103936;28;20082;-47
2023/10/02 01:28:06;;;;;;;10.45;7.43;;;;;;;;;;5096282;28;20066;-47
2023/10/02 01:30:34;;;;;;;7.85;4.95;;;;;;;;;;5104013;28;20020;-47
2023/10/02 01:33:35;;;;;;;6.60;4.15;;;;;;;;;;5103981;28;20032;-42
2023/10/02 01:35:56;;;;;;;5.45;3.30;;;;;;;;;;5096775;28;20032;-43
2023/10/02 01:38:35;;;;;;;5.40;3.35;;;;;;;;;;5093925;28;20327;-51
2023/10/02 01:41:10;;;;;;;11.05;3.78;;;;;;;;;;5090813;28;20028;-49
2023/10/02 01:43:45;;;;;;;5.50;3.13;;;;;;;;;;5094625;28;20028;-48
2023/10/02 01:46:18;;;;;;;4.80;3.42;;;;;;;;;;5083556;28;20024;-42
2023/10/02 01:48:48;;;;;;;7.88;3.58;;;;;;;;;;5083985;28;20020;-51
2023/10/02 01:51:21;;;;;;;5.90;3.00;;;;;;;;;;5095601;28;20091;-42
2023/10/02 01:53:54;;;;;;;5.90;3.10;;;;;;;;;;5089694;28;20048;-46
2023/10/02 01:56:21;;;;;;;6.15;2.85;;;;;;;;;;5094125;28;20040;-44
2023/10/02 01:58:51;;;;;;;12.77;3.60;;;;;;;;;;5102124;28;20021;-44
2023/10/02 02:01:20;;;;;;;3.70;3.13;;;;;;;;;;5091062;28;20059;-42
2023/10/02 02:03:48;;;;;;;6.97;3.47;;;;;;;;;;5091457;28;20046;-48
2023/10/02 02:06:22;;;;;;;4.15;3.17;;;;;;;;;;5095748;28;20020;-44
2023/10/02 02:08:52;;;;;;;4.63;3.30;;;;;;;;;;5085525;28;20047;-46
2023/10/02 02:11:34;;;;;;;6.43;3.00;;;;;;;;;;5083230;28;20024;-44
2023/10/02 02:14:04;;;;;;;5.95;3.42;;;;;;;;;;5082654;28;20056;-50
2023/10/02 02:16:33;;;;;;;4.88;3.58;;;;;;;;;;5089834;28;20063;-43
2023/10/02 02:19:07;;;;;;;9.80;5.47;;;;;;;;;;5101931;28;20024;-45
2023/10/02 02:21:38;;;;;;;7.88;5.78;;;;;;;;;;5103099;28;20020;-41
2023/10/02 02:24:08;;;;;;;10.85;5.78;;;;;;;;;;5097286;28;20035;-47
2023/10/02 02:26:39;;;;;;;9.30;5.80;;;;;;;;;;5085420;28;20024;-41
2023/10/02 02:29:23;;;;;;;9.50;6.13;;;;;;;;;;5086312;28;20024;-45
2023/10/02 02:31:54;;;;;;;10.05;6.00;;;;;;;;;;5086775;28;20024;-47
2023/10/02 02:34:23;;;;;;;5.97;4.20;;;;;;;;;;5096660;28;20246;-44
2023/10/02 02:36:50;;;;;;;6.93;4.00;;;;;;;;;;5106909;28;20054;-42
2023/10/02 02:39:20;;;;;;;6.78;3.95;;;;;;;;;;5092901;28;20043;-45
2023/10/02 02:42:09;;;;;;;10.85;3.85;;;;;;;;;;5086484;28;20024;-44
2023/10/02 02:44:43;;;;;;;4.70;3.70;;;;;;;;;;5096081;28;20094;-43
2023/10/02 02:47:12;;;;;;;7.43;3.45;;;;;;;;;;5106535;28;20074;-40
2023/10/02 02:49:58;;;;;;;6.55;3.97;;;;;;;;;;5106646;28;20020;-41
2023/10/02 02:52:25;;;;;;;5.85;4.00;;;;;;;;;;5106656;28;20223;-43
2023/10/02 02:54:59;;;;;;;4.68;3.38;;;;;;;;;;5106099;28;20045;-44
2023/10/02 02:57:30;;;;;;;10.55;3.70;;;;;;;;;;5106403;28;20032;-49
2023/10/02 03:02:46;;;;;;;7.00;3.28;;;;;;;;;;5106198;28;20101;-43
2023/10/02 03:05:20;;;;;;;4.78;3.00;;;;;;;;;;5100035;28;20029;-44
2023/10/02 03:07:49;;;;;;;7.60;3.95;;;;;;;;;;5090307;28;20024;-42
2023/10/02 03:10:17;;;;;;;7.45;3.80;;;;;;;;;;5106359;28;20320;-49
2023/10/02 03:12:50;;;;;;;7.30;3.20;;;;;;;;;;5106293;28;20031;-48
2023/10/02 03:15:17;;;;;;;3.50;3.20;;;;;;;;;;5106027;28;20032;-45
2023/10/02 03:17:48;;;;;;;11.52;3.38;;;;;;;;;;5106178;28;20299;-45
2023/10/02 03:20:26;;;;;;;5.53;3.42;;;;;;;;;;5105598;28;20036;-45
2023/10/02 03:22:57;;;;;;;5.10;2.97;;;;;;;;;;5106202;28;20087;-50
2023/10/02 03:25:45;;;;;;;5.80;3.08;;;;;;;;;;5101168;28;20039;-43
2023/10/02 03:28:28;;;;;;;4.90;3.20;;;;;;;;;;5097145;28;20088;-45
2023/10/02 03:30:58;;;;;;;8.10;3.08;;;;;;;;;;5105607;28;20028;-43
2023/10/02 03:33:31;;;;;;;7.35;3.10;;;;;;;;;;5106057;28;20022;-49
2023/10/02 03:35:58;;;;;;;8.30;3.72;;;;;;;;;;5098804;28;20069;-42
2023/10/02 03:38:32;;;;;;;6.97;3.53;;;;;;;;;;5088620;28;20016;-48
2023/10/02 03:41:01;;;;;;;8.65;3.60;;;;;;;;;;5085344;28;20043;-45
2023/10/02 03:43:48;;;;;;;6.97;3.95;;;;;;;;;;5085476;28;20013;-41
2023/10/02 03:46:35;;;;;;;6.25;3.65;;;;;;;;;;5085289;28;20036;-45
2023/10/02 03:49:05;;;;;;;6.22;2.90;;;;;;;;;;5085394;28;20292;-48
2023/10/02 03:51:40;;;;;;;6.50;3.33;;;;;;;;;;5085102;28;20041;-42
2023/10/02 03:54:17;;;;;;;5.72;3.17;;;;;;;;;;5085348;28;20030;-44
2023/10/02 03:56:47;;;;;;;5.47;3.10;;;;;;;;;;5085144;28;20032;-46
2023/10/02 03:59:25;;;;;;;4.28;3.08;;;;;;;;;;5085420;28;20056;-45
2023/10/02 04:01:52;;;;;;;6.80;3.45;;;;;;;;;;5084899;28;20028;-42
2023/10/02 04:04:48;;;;;;;6.55;3.67;;;;;;;;;;5084255;28;20041;-46
2023/10/02 04:07:39;;;;;;;7.53;3.78;;;;;;;;;;5084698;28;20033;-45
2023/10/02 04:10:08;;;;;;;7.38;3.33;;;;;;;;;;5084567;28;20024;-43
2023/10/02 04:12:50;;;;;;;8.35;3.55;;;;;;;;;;5084690;28;20025;-43
2023/10/02 04:15:21;;;;;;;4.43;3.08;;;;;;;;;;5084450;28;20028;-42
2023/10/02 04:17:49;;;;;;;5.80;3.03;;;;;;;;;;5084755;28;20032;-48
2023/10/02 04:20:27;;;;;;;7.93;3.38;;;;;;;;;;5084537;28;20036;-44
2023/10/02 04:23:21;;;;;;;6.07;3.58;;;;;;;;;;5084596;28;20399;-45
2023/10/02 04:25:51;;;;;;;6.40;2.70;;;;;;;;;;5084308;28;20046;-51
2023/10/02 04:31:20;;;;;;;6.03;3.55;;;;;;;;;;5084409;28;20059;-44
2023/10/02 04:34:14;;;;;;;6.60;3.60;;;;;;;;;;5084559;28;20024;-43
2023/10/02 04:36:40;;;;;;;4.70;2.92;;;;;;;;;;5084134;28;20228;-43
2023/10/02 04:39:40;;;;;;;6.03;3.10;;;;;;;;;;5084611;28;20035;-47
2023/10/02 04:42:21;;;;;;;8.85;3.25;;;;;;;;;;5084245;28;20035;-44
2023/10/02 04:45:04;;;;;;;5.68;3.50;;;;;;;;;;5084032;28;20032;-51
2023/10/02 04:47:32;;;;;;;4.63;2.95;;;;;;;;;;5084181;28;20066;-45
2023/10/02 04:53:04;;;;;;;6.25;3.22;;;;;;;;;;5084079;28;20207;-44
2023/10/02 04:56:19;;;;;;;6.90;3.10;;;;;;;;;;5084305;28;20217;-52
2023/10/02 05:02:15;;;;;;;8.27;3.45;;;;;;;;;;5097189;28;20038;-41
2023/10/02 05:04:31;;;;;;;4.88;3.15;;;;;;;;;;5083251;28;20100;-48
2023/10/02 05:06:59;;;;;;;4.97;2.92;;;;;;;;;;5083834;28;20268;-43
2023/10/02 05:09:26;;;;;;;5.90;3.33;;;;;;;;;;5084069;28;20212;-42
2023/10/02 05:11:57;;;;;;;5.10;3.08;;;;;;;;;;5083926;28;20062;-43
2023/10/02 05:14:47;;;;;;;6.88;2.95;;;;;;;;;;5084346;28;20028;-45
2023/10/02 05:17:19;;;;;;;3.78;3.05;;;;;;;;;;5083786;28;20080;-42
2023/10/02 05:20:03;;;;;;;5.45;3.60;;;;;;;;;;5083846;28;20240;-42
2023/10/02 05:22:36;;;;;;;5.40;3.25;;;;;;;;;;5083974;28;20041;-47
2023/10/02 05:25:07;;;;;;;8.48;3.65;;;;;;;;;;5083842;28;20328;-46
2023/10/02 05:27:59;;;;;;;4.68;3.05;;;;;;;;;;5083769;28;20078;-48
2023/10/02 05:30:51;;;;;;;7.88;3.30;;;;;;;;;;5083941;28;20024;-46
2023/10/02 05:33:36;;;;;;;5.32;2.88;;;;;;;;;;5083886;28;20029;-45
2023/10/02 05:36:07;;;;;;;10.00;3.55;;;;;;;;;;5083753;28;20029;-47
2023/10/02 05:38:34;;;;;;;3.88;2.90;;;;;;;;;;5083741;28;20027;-44
2023/10/02 05:41:03;;;;;;;4.40;2.90;;;;;;;;;;5083609;28;20028;-42
2023/10/02 05:43:47;;;;;;;5.88;2.72;;;;;;;;;;5083778;28;20020;-52
2023/10/02 05:46:55;;;;;;;6.45;3.15;;;;;;;;;;5083507;28;20025;-47
2023/10/02 05:49:26;;;;;;;4.63;2.95;;;;;;;;;;5084031;28;20070;-44
2023/10/02 05:52:00;;;;;;;4.05;2.95;;;;;;;;;;5083521;28;20037;-44
2023/10/02 05:57:20;;;;;;;5.65;2.80;;;;;;;;;;5083352;28;20063;-50
2023/10/02 05:59:54;;;;;;;4.45;2.80;;;;;;;;;;5083362;28;20128;-49
2023/10/02 06:02:22;;;;;;;6.95;2.88;;;;;;;;;;5083622;28;20031;-46
2023/10/02 06:05:14;;;;;;;4.13;3.10;;;;;;;;;;5086598;28;20273;-44
2023/10/02 06:07:45;;;;;;;6.03;3.42;;;;;;;;;;5096533;28;20028;-54
2023/10/02 06:10:46;;;;;;;4.88;2.70;;;;;;;;;;5099383;28;20040;-44
2023/10/02 06:13:08;;;;;;;6.80;3.20;;;;;;;;;;5105337;28;20028;-45
2023/10/02 06:15:47;;;;;;;4.72;2.72;;;;;;;;;;5107402;28;20043;-45
2023/10/02 06:18:40;;;;;;;4.03;2.72;;;;;;;;;;5107484;28;20027;-45
2023/10/02 06:21:10;;;;;;;7.60;2.63;;;;;;;;;;5107202;28;20040;-54
2023/10/02 06:23:45;;;;;;;5.68;2.92;;;;;;;;;;5107263;28;20035;-47
2023/10/02 06:26:15;;;;;;;3.80;2.38;;;;;;;;;;5107252;28;20020;-46
2023/10/02 06:28:47;;;;;;;5.10;2.55;;;;;;;;;;5107524;28;20048;-43
2023/10/02 06:31:30;;;;;;;3.55;2.50;;;;;;;;;;5107098;28;20325;-41
2023/10/02 06:33:57;;;;;;;5.28;2.67;;;;;;;;;;5107315;28;20056;-46
2023/10/02 06:36:24;;;;;;;7.28;2.70;;;;;;;;;;5106782;28;20024;-43
2023/10/02 06:38:54;;;;;;;5.68;2.28;;;;;;;;;;5107362;28;20035;-43
2023/10/02 06:41:23;;;;;;;3.83;2.35;;;;;;;;;;5106844;28;20087;-43
2023/10/02 06:43:53;;;;;;;6.18;2.78;;;;;;;;;;5106929;28;20200;-44
2023/10/02 06:46:21;;;;;;;3.72;2.47;;;;;;;;;;5106698;28;20064;-44
2023/10/02 06:48:54;;;;;;;6.20;2.58;;;;;;;;;;5107123;28;20321;-45
2023/10/02 06:51:49;;;;;;;4.32;2.80;;;;;;;;;;5106687;28;20064;-42
2023/10/02 06:54:21;;;;;;;5.55;2.33;;;;;;;;;;5106906;28;20319;-45
2023/10/02 06:56:49;;;;;;;8.38;2.70;;;;;;;;;;5106568;28;20039;-45
2023/10/02 06:59:17;;;;;;;3.90;2.50;;;;;;;;;;5106987;28;20081;-47
2023/10/02 07:02:04;;;;;;;4.43;2.55;;;;;;;;;;5106384;28;20031;-44
2023/10/02 07:07:29;;;;;;;6.33;2.73;;;;;;;;;;5106369;28;20031;-46
2023/10/02 07:10:07;;;;;;;6.32;2.72;;;;;;;;;;5106140;28;20029;-45
2023/10/02 07:12:39;;;;;;;5.30;3.17;;;;;;;;;;5106240;28;20025;-44
2023/10/02 07:15:12;;;;;;;;;;;;;;;;;;5105746;28;20036;-43
2023/10/02 07:17:47;;;;;;;7.18;3.25;;;;;;;;;;5106170;28;19900;-42
2023/10/02 07:20:23;;;;;;;6.13;2.92;;;;;;;;;;5106066;28;20036;-43
2023/10/02 07:22:53;;;;;;;3.55;2.90;;;;;;;;;;5106121;28;20043;-47
2023/10/02 07:25:24;;;;;;;6.82;2.90;;;;;;;;;;5105867;28;20040;-48
2023/10/02 07:28:16;;;;;;;5.15;2.92;;;;;;;;;;5105952;28;20015;-49
2023/10/02 07:31:07;;;;;;;9.57;3.23;;;;;;;;;;5105845;28;20036;-44
2023/10/02 07:33:36;;;;;;;6.25;3.20;;;;;;;;;;5106139;28;20031;-50
2023/10/02 07:36:08;;;;;;;6.15;3.03;;;;;;;;;;5105935;28;20032;-45
2023/10/02 07:38:37;;;;;;;6.22;3.13;;;;;;;;;;5105905;28;20058;-47
2023/10/02 07:41:07;;;;;;;4.28;2.85;;;;;;;;;;5106080;28;20064;-44
2023/10/02 07:43:34;;;;;;;9.18;3.20;;;;;;;;;;5105649;28;20034;-52
2023/10/02 07:46:14;;;;;;;6.80;2.63;;;;;;;;;;5103822;28;20083;-44
2023/10/02 07:48:55;;;;;;;8.38;3.05;;;;;;;;;;5102975;28;20043;-42
2023/10/02 07:51:30;;;;;;;10.20;3.10;;;;;;;;;;5103457;28;20216;-45
2023/10/02 07:54:00;;;;;;;4.80;3.00;;;;;;;;;;5094046;28;20029;-44
2023/10/02 07:56:28;;;;;;;4.95;2.72;;;;;;;;;;5084975;28;20032;-52
2023/10/02 07:59:01;;;;;;;5.90;2.55;;;;;;;;;;5106092;28;20042;-51
2023/10/02 08:01:33;;;;;;;6.40;3.08;;;;;;;;;;5098352;28;20028;-44
2023/10/02 08:04:01;;;;;;;;;;;;;;;;;;5100392;28;20237;-56
2023/10/02 08:11:54;;;;;;;4.43;2.85;;;;;;;;;;5084821;28;20312;-48
2023/10/02 08:14:35;;;;;;;5.68;2.97;;;;;;;;;;5085092;28;20087;-44
2023/10/02 08:18:14;;;;;;;5.72;3.05;;;;;;;;;;5084333;28;20036;-41
2023/10/02 08:20:19;;;;;;;5.38;3.13;;;;;;;;;;5075651;28;20078;-46
2023/10/02 08:22:46;;;;;;;6.68;2.88;;;;;;;;;;5084503;28;20048;-43
2023/10/02 08:25:16;;;;;;;4.22;3.03;;;;;;;;;;5083726;28;20020;-45
2023/10/02 08:27:46;;;;;;;3.80;2.53;;;;;;;;;;5084490;28;20070;-47
2023/10/02 08:30:27;;;;;;;6.22;3.05;;;;;;;;;;5084609;28;20023;-42
2023/10/02 08:32:54;;;;;;;3.78;2.80;;;;;;;;;;5084585;28;20307;-45
2023/10/02 08:35:21;;;;;;;4.90;3.20;;;;;;;;;;5084263;28;20043;-44
2023/10/02 08:37:54;;;;;;;5.55;2.80;;;;;;;;;;5084356;28;20236;-41
2023/10/02 08:40:24;;;;;;;4.47;2.90;;;;;;;;;;5084281;28;20032;-44
2023/10/02 08:42:52;;;;;;;4.95;2.95;;;;;;;;;;5084353;28;20220;-47
2023/10/02 08:45:22;;;;;;;7.45;2.53;;;;;;;;;;5084122;28;20046;-43
2023/10/02 08:47:53;;;;;;;6.88;3.00;;;;;;;;;;5084179;28;20016;-43
2023/10/02 08:50:20;;;;;;;4.28;2.78;;;;;;;;;;5084135;28;20028;-43
2023/10/02 08:52:48;;;;;;;3.25;2.90;;;;;;;;;;5084174;28;20204;-48
2023/10/02 08:55:51;;;;;;;6.43;3.22;;;;;;;;;;5084026;28;20032;-42
2023/10/02 08:58:19;;;;;;;7.97;3.28;;;;;;;;;;5084116;28;20028;-46
2023/10/02 09:06:43;;;;;;;8.80;3.15;;;;;;;;;;5084320;28;20093;-47
2023/10/02 09:12:29;;;;;;;5.30;4.10;;;;;;;;;;5084038;28;20197;-43
2023/10/02 09:15:20;;;;;;;6.13;3.78;;;;;;;;;;5083805;28;20029;-44
2023/10/02 09:17:44;;;;;;;6.25;3.47;;;;;;;;;;5083953;28;20059;-45
2023/10/02 09:20:15;;;;;;;8.85;3.88;;;;;;;;;;5083458;28;20038;-44
2023/10/02 09:22:44;;;;;;;3.60;2.97;;;;;;;;;;5084072;28;20208;-49
2023/10/02 09:25:23;;;;;;;6.13;3.33;;;;;;;;;;5083829;28;20040;-54
2023/10/02 09:27:57;;;;;;;5.03;3.28;;;;;;;;;;5083773;28;20099;-47
2023/10/02 09:30:36;;;;;;;5.15;3.60;;;;;;;;;;5083786;28;20020;-48
2023/10/02 09:33:08;;;;;;;8.93;3.38;;;;;;;;;;5083787;28;20043;-44
2023/10/02 09:38:10;;;;;;;6.05;3.08;;;;;;;;;;5087138;28;20074;-46
2023/10/02 09:43:31;;;;;;;4.65;2.83;;;;;;;;;;5087905;28;20338;-45
2023/10/02 09:46:06;;;;;;;7.32;2.80;;;;;;;;;;5087576;28;20047;-45
2023/10/02 09:57:04;;;;;;;6.18;2.45;;;;;;;;;;5087492;28;20035;-52
2023/10/02 09:59:46;;;;;;;5.18;2.72;;;;;;;;;;5087689;28;20043;-48
2023/10/02 10:05:00;;;;;;;6.80;2.70;;;;;;;;;;5086237;28;20053;-45
2023/10/02 10:11:10;;;;;;;3.83;2.75;;;;;;;;;;5087064;28;20091;-42
2023/10/02 10:13:50;;;;;;;4.65;3.03;;;;;;;;;;5087336;28;20031;-43
2023/10/02 10:16:20;;;;;;;4.85;2.80;;;;;;;;;;5086845;28;20038;-44
2023/10/02 10:19:44;;;;;;;5.68;3.00;;;;;;;;;;5087326;28;20211;-42
2023/10/02 10:21:57;;;;;;;6.70;3.00;;;;;;;;;;5082907;28;20036;-44
2023/10/02 10:27:40;;;;;;;6.60;2.97;;;;;;;;;;5079228;28;20024;-47
2023/10/02 10:32:47;;;;;;;7.70;2.97;;;;;;;;;;5087367;28;20086;-42
2023/10/02 10:38:41;;;;;;;11.52;3.20;;;;;;;;;;5088645;28;20039;-45
2023/10/02 10:41:14;;;;;;;12.05;3.92;;;;;;;;;;5098003;28;20033;-48
2023/10/02 10:52:44;;;;;;;17.33;4.95;;;;;;;;;;5105455;28;20039;-44
2023/10/02 10:55:32;;;;;;;10.82;4.35;;;;;;;;;;5092273;28;20032;-46
2023/10/02 10:58:31;;;;;;;13.18;4.32;;;;;;;;;;5101248;28;20024;-45
2023/10/02 11:00:59;;;;;;;19.30;4.97;;;;;;;;;;5104569;28;20035;-49
2023/10/02 11:03:26;;;;;;;12.07;4.00;;;;;;;;;;5104604;28;20059;-43
2023/10/02 11:05:54;;;;;;;11.73;4.30;;;;;;;;;;5106337;28;20216;-47
2023/10/02 11:08:23;;;;;;;14.18;4.88;;;;;;;;;;5106783;28;20192;-46
2023/10/02 11:11:00;;;;;;;11.65;4.05;;;;;;;;;;5106343;28;20328;-48
2023/10/02 11:16:30;;;;;;;11.35;3.67;;;;;;;;;;5105983;28;20062;-57
2023/10/02 11:19:21;;;;;;;13.73;6.43;;;;;;;;;;5105499;28;20312;-50
2023/10/02 11:22:16;;;;;;;22.02;4.72;;;;;;;;;;5104348;28;20184;-43
2023/10/02 11:25:19;;;;;;;13.82;4.22;;;;;;;;;;5104088;28;20063;-45
2023/10/02 11:33:55;;;;;;;13.55;4.55;;;;;;;;;;5105108;28;20147;-47
2023/10/02 11:36:22;;;;;;;10.38;3.80;;;;;;;;;;5105410;28;20047;-46
2023/10/02 11:38:51;;;;;;;7.80;3.92;;;;;;;;;;5104318;28;20020;-46
2023/10/02 11:41:18;;;;;;;9.02;3.65;;;;;;;;;;5103993;28;20024;-45
2023/10/02 11:43:45;;;;;;;14.85;4.05;;;;;;;;;;5104053;28;20087;-47
2023/10/02 11:46:12;;;;;;;11.00;3.92;;;;;;;;;;5103885;28;20034;-43
2023/10/02 11:51:30;;;;;;;8.45;3.50;;;;;;;;;;5103969;28;20129;-44
2023/10/02 11:53:58;;;;;;;6.95;3.40;;;;;;;;;;5105849;28;20246;-44
2023/10/02 11:56:26;;;;;;;5.82;3.25;;;;;;;;;;5105206;28;20316;-44
2023/10/02 11:58:58;;;;;;;9.20;2.97;;;;;;;;;;5105334;28;20069;-44
2023/10/02 12:01:26;;;;;;;6.57;2.90;;;;;;;;;;5105153;28;20028;-47
2023/10/02 12:03:59;;;;;;;4.47;2.65;;;;;;;;;;5105011;28;20052;-45
2023/10/02 12:06:29;;;;;;;11.68;3.28;;;;;;;;;;5105144;28;20380;-41
2023/10/02 12:08:57;;;;;;;4.65;2.75;;;;;;;;;;5105413;28;20079;-39
2023/10/02 12:11:30;;;;;;;6.40;2.80;;;;;;;;;;5105179;28;20020;-38
2023/10/02 12:13:59;;;;;;;5.65;2.70;;;;;;;;;;5105518;28;20043;-36
2023/10/02 12:16:26;;;;;;;5.30;2.67;;;;;;;;;;5104814;28;20032;-47
2023/10/02 12:18:53;;;;;;;7.85;3.05;;;;;;;;;;5105359;28;20031;-38
2023/10/02 12:21:47;;;;;;;5.43;2.97;;;;;;;;;;5104922;28;20028;-42
2023/10/02 12:24:14;;;;;;;8.30;2.53;;;;;;;;;;5105191;28;20065;-43
2023/10/02 12:26:41;;;;;;;6.30;3.20;;;;;;;;;;5104660;28;20020;-39
2023/10/02 12:29:10;;;;;;;7.03;2.90;;;;;;;;;;5105212;28;20074;-48
2023/10/02 12:31:37;;;;;;;7.53;3.20;;;;;;;;;;5104675;28;20089;-43
2023/10/02 12:34:05;;;;;;;3.85;2.72;;;;;;;;;;5104965;28;20083;-44
2023/10/02 12:36:33;;;;;;;7.40;3.47;;;;;;;;;;5104622;28;20028;-42
2023/10/02 12:39:09;;;;;;;7.30;2.85;;;;;;;;;;5105037;28;20354;-40
2023/10/02 12:41:36;;;;;;;5.00;3.05;;;;;;;;;;5104788;28;20191;-39
2023/10/02 12:44:02;;;;;;;7.18;3.00;;;;;;;;;;5104837;28;20036;-42
2023/10/02 12:46:30;;;;;;;7.88;3.17;;;;;;;;;;5104494;28;20023;-41
2023/10/02 12:48:58;;;;;;;6.32;2.63;;;;;;;;;;5104726;28;20027;-39
2023/10/02 12:51:25;;;;;;;5.68;2.60;;;;;;;;;;5104359;28;20081;-37
2023/10/02 12:53:52;;;;;;;6.63;2.50;;;;;;;;;;5104719;28;20115;-36
2023/10/02 12:59:11;;;;;;;4.45;2.67;;;;;;;;;;5104806;28;20053;-39
2023/10/02 13:01:38;;;;;;;4.53;2.25;;;;;;;;;;5104125;28;20032;-47
2023/10/02 13:04:06;;;;;;;4.95;2.30;;;;;;;;;;5104098;28;20044;-50
2023/10/02 13:06:35;;;;;;;6.97;2.50;;;;;;;;;;5104568;28;20023;-49
2023/10/02 13:09:10;;;;;;;5.72;2.50;;;;;;;;;;5104372;28;20020;-45
2023/10/02 13:11:39;;;;;;;4.20;2.42;;;;;;;;;;5103669;28;20247;-44
2023/10/02 13:14:08;;;;;;;6.03;2.55;;;;;;;;;;5104391;28;20361;-41
2023/10/02 13:16:37;;;;;;;3.38;2.00;;;;;;;;;;5104037;28;20034;-40
2023/10/02 13:19:12;;;;;;;4.93;2.38;;;;;;;;;;5104517;28;20031;-50
2023/10/02 13:21:40;;;;;;;4.78;2.20;;;;;;;;;;5103830;28;20032;-48
2023/10/02 13:24:10;;;;;;;6.10;2.67;;;;;;;;;;5104326;28;20355;-38
2023/10/02 13:26:39;;;;;;;4.88;2.50;;;;;;;;;;5103928;28;20224;-41
2023/10/02 13:29:05;;;;;;;3.05;2.17;;;;;;;;;;5104333;28;20024;-36
2023/10/02 13:31:32;;;;;;;4.35;2.30;;;;;;;;;;5104005;28;20048;-41
2023/10/02 13:34:00;;;;;;;5.45;2.40;;;;;;;;;;5104352;28;20035;-37
2023/10/02 13:36:27;;;;;;;6.57;2.42;;;;;;;;;;5103852;28;20039;-41
2023/10/02 13:38:58;;;;;;;4.18;2.42;;;;;;;;;;5104231;28;20047;-44
2023/10/02 13:41:26;;;;;;;3.72;2.10;;;;;;;;;;5103763;28;20028;-44
2023/10/02 13:43:55;;;;;;;3.50;2.10;;;;;;;;;;5104064;28;20106;-40
2023/10/02 13:52:30;;;;;;;4.22;2.00;;;;;;;;;;5103845;28;20283;-46
2023/10/02 13:54:57;;;;;;;4.07;2.40;;;;;;;;;;5104011;28;20266;-42
2023/10/02 13:57:24;;;;;;;4.22;2.20;;;;;;;;;;5103520;28;20031;-38
2023/10/02 13:59:50;;;;;;;3.92;2.30;;;;;;;;;;5103764;28;20032;-42
2023/10/02 14:02:41;;;;;;;4.65;2.38;;;;;;;;;;5103669;28;20103;-43
2023/10/02 14:05:10;;;;;;;4.03;2.40;;;;;;;;;;5102995;28;20052;-47
2023/10/02 14:07:37;;;;;;;4.85;2.45;;;;;;;;;;5103604;28;20120;-43
2023/10/02 14:10:04;;;;;;;4.60;2.45;;;;;;;;;;5103579;28;20047;-37
2023/10/02 14:12:33;;;;;;;2.90;2.35;;;;;;;;;;5103762;28;20016;-38
2023/10/02 14:15:00;;;;;;;2.45;2.20;;;;;;;;;;5103686;28;20324;-42
2023/10/02 14:17:27;;;;;;;3.92;2.28;;;;;;;;;;5103367;28;20091;-45
2023/10/02 14:22:47;;;;;;;7.75;2.78;;;;;;;;;;5103712;28;20370;-45
2023/10/02 14:25:23;;;;;;;7.05;2.75;;;;;;;;;;5106474;28;20343;-40
2023/10/02 14:27:51;;;;;;;4.70;2.70;;;;;;;;;;5107013;28;20030;-45
2023/10/02 14:30:22;;;;;;;6.22;2.75;;;;;;;;;;5107031;28;20028;-41
2023/10/02 14:32:49;;;;;;;6.63;2.70;;;;;;;;;;5107134;28;20212;-42
2023/10/02 14:38:11;;;;;;;10.95;3.05;;;;;;;;;;5107185;28;20046;-43
2023/10/02 14:40:38;;;;;;;12.80;3.55;;;;;;;;;;5106762;28;20036;-44
2023/10/02 14:43:05;;;;;;;16.35;5.88;;;;;;;;;;5107146;28;20020;-40
2023/10/02 14:45:35;;;;;;;8.52;5.10;;;;;;;;;;5106730;28;20024;-41
2023/10/02 14:48:02;;;;;;;15.73;5.47;;;;;;;;;;5106824;28;20060;-41
2023/10/02 14:50:30;;;;;;;18.48;5.22;;;;;;;;;;5106875;28;20204;-43
2023/10/02 14:52:57;;;;;;;20.75;5.40;;;;;;;;;;5106835;28;20177;-44
2023/10/02 14:55:27;;;;;;;22.77;5.88;;;;;;;;;;5106601;28;20308;-44
2023/10/02 14:57:54;;;;;;;23.00;5.30;;;;;;;;;;5106397;28;20065;-44
2023/10/02 15:00:45;;;;;;;26.23;5.68;;;;;;;;;;5106546;28;20086;-44
2023/10/02 15:03:12;;;;;;;21.50;5.70;;;;;;;;;;5106527;28;20040;-43
2023/10/02 15:05:39;;;;;;;28.77;5.93;;;;;;;;;;5106036;28;20032;-40
2023/10/02 15:08:10;;;;;;;32.67;5.70;;;;;;;;;;5106476;28;20020;-40
2023/10/02 15:10:37;;;;;;;34.53;6.20;;;;;;;;;;5106243;28;20024;-39
2023/10/02 15:13:05;;;;;;;23.00;5.45;;;;;;;;;;5106333;28;20043;-43
2023/10/02 15:15:31;;;;;;;34.78;5.75;;;;;;;;;;5106184;28;20106;-37
2023/10/02 15:17:58;;;;;;;26.00;6.10;;;;;;;;;;5106193;28;20043;-40
2023/10/02 15:20:26;;;;;;;35.25;6.60;;;;;;;;;;5106020;28;20067;-38
2023/10/02 15:22:57;;;;;;;38.63;6.53;;;;;;;;;;5106329;28;20020;-39
2023/10/02 15:25:28;;;;;;;35.28;5.35;;;;;;;;;;5106057;28;20036;-37
2023/10/02 15:27:56;;;;;;;34.70;6.17;;;;;;;;;;5105941;28;20035;-41
2023/10/02 15:30:23;;;;;;;35.95;5.88;;;;;;;;;;5105947;28;20036;-43
2023/10/02 15:32:52;;;;;;;37.25;5.18;;;;;;;;;;5105920;28;20016;-42
2023/10/02 15:35:19;;;;;;;26.55;4.57;;;;;;;;;;5105339;28;20036;-48
2023/10/02 15:37:54;;;;;;;31.00;5.78;;;;;;;;;;5105761;28;20024;-41
2023/10/02 15:40:22;;;;;;;27.98;5.00;;;;;;;;;;5105649;28;20028;-46
2023/10/02 15:42:54;;;;;;;26.92;4.95;;;;;;;;;;5105725;28;20028;-42
2023/10/02 15:45:24;;;;;;;18.77;4.80;;;;;;;;;;5105645;28;20051;-41
2023/10/02 15:47:55;;;;;;;24.55;4.93;;;;;;;;;;5105545;28;20028;-38
2023/10/02 15:50:26;;;;;;;29.38;5.40;;;;;;;;;;5105476;28;20316;-39
2023/10/02 15:52:54;;;;;;;15.85;4.72;;;;;;;;;;5105756;28;20020;-36
2023/10/02 15:55:23;;;;;;;21.40;4.63;;;;;;;;;;5105365;28;20036;-51
2023/10/02 15:57:52;;;;;;;31.05;5.07;;;;;;;;;;5105405;28;20024;-45
2023/10/02 16:00:28;;;;;;;29.23;5.07;;;;;;;;;;5105321;28;20104;-49
2023/10/02 16:02:57;;;;;;;22.35;5.00;;;;;;;;;;5105181;28;20036;-40
2023/10/02 16:05:24;;;;;;;47.17;5.53;;;;;;;;;;5105258;28;20038;-39
2023/10/02 16:07:52;;;;;;;37.20;5.53;;;;;;;;;;5105167;28;20077;-38
2023/10/02 16:10:23;;;;;;;37.22;6.53;;;;;;;;;;5105104;28;20027;-41
2023/10/02 16:12:50;;;;;;;29.60;5.13;;;;;;;;;;5105232;28;20031;-43
2023/10/02 16:15:21;;;;;;;32.47;5.45;;;;;;;;;;5104822;28;20036;-41
2023/10/02 16:20:42;;;;;;;35.35;5.47;;;;;;;;;;5104995;28;20078;-38
2023/10/02 16:23:10;;;;;;;36.15;5.53;;;;;;;;;;5105030;28;20091;-43
2023/10/02 16:25:37;;;;;;;34.50;6.30;;;;;;;;;;5104697;28;20027;-47
2023/10/02 16:28:09;;;;;;;26.42;5.50;;;;;;;;;;5104960;28;20103;-43
2023/10/02 16:30:37;;;;;;;24.58;4.80;;;;;;;;;;5104726;28;20028;-43
2023/10/02 16:33:06;;;;;;;26.80;5.32;;;;;;;;;;5104748;28;20083;-40
2023/10/02 16:35:35;;;;;;;23.13;4.35;;;;;;;;;;5104683;28;20316;-39
2023/10/02 16:38:10;;;;;;;28.33;4.35;;;;;;;;;;5104482;28;20097;-43
2023/10/02 16:43:28;;;;;;;22.73;4.85;;;;;;;;;;5104740;28;20026;-46
2023/10/02 16:45:55;;;;;;;13.18;3.95;;;;;;;;;;5104054;28;20051;-49
2023/10/02 16:48:21;;;;;;;15.07;4.15;;;;;;;;;;5104519;28;20024;-41
2023/10/02 16:50:51;;;;;;;21.90;4.15;;;;;;;;;;5104501;28;20027;-38
2023/10/02 16:53:19;;;;;;;22.95;4.50;;;;;;;;;;5104641;28;20043;-36
2023/10/02 16:55:46;;;;;;;19.40;4.78;;;;;;;;;;5104365;28;20093;-46
2023/10/02 16:58:14;;;;;;;16.90;4.30;;;;;;;;;;5104614;28;20087;-43
2023/10/02 17:00:41;;;;;;;26.08;4.57;;;;;;;;;;5104242;28;20035;-44
2023/10/02 17:03:09;;;;;;;25.00;4.50;;;;;;;;;;5103615;28;20040;-49
2023/10/02 17:08:30;;;;;;;19.20;3.97;;;;;;;;;;5104503;28;20215;-43
2023/10/02 17:10:57;;;;;;;17.77;4.22;;;;;;;;;;5104057;28;20087;-45